EW8849 Weather Reports


Display with metric or nautical units.
time (UTC)temp
F
wind
direction
speed
MPH
gust
MPH
rain 1hr
in
rain 24hr
in
rain mn
in
humidity
%
barometer
mb
20200330002105 53 338 3.0 3.0 0.00 0.00 0.78 70 1011.5
20200330001104 52 180 0.0 0.0 0.00 0.00 0.78 75 1011.5
20200329235604 52 0 0.0 0.0 0.00 0.00 0.78 71 1011.5
20200329234104 53 203 0.0 0.0 0.00 0.00 0.78 73 1011.9
20200329232604 52 338 1.0 1.0 0.00 0.00 0.78 74 1011.9
20200329231106 52 0 2.0 2.0 0.00 0.00 0.78 73 1012.2
20200329225604 52 270 2.0 2.0 0.00 0.00 0.78 74 1012.2
20200329224603 52 338 2.0 2.0 0.00 0.00 0.78 76 1011.9
20200329223106 52 180 4.0 4.0 0.00 0.00 0.78 74 1012.2
20200329221604 52 203 3.0 3.0 0.00 0.00 0.78 80 1012.2
20200329220104 51 270 1.0 1.0 0.00 0.00 0.78 80 1012.2
20200329214603 52 203 2.0 2.0 0.00 0.00 0.78 79 1012.5
20200329213104 53 0 2.0 2.0 0.00 0.00 0.78 79 1012.5
20200329212103 51 338 2.0 2.0 0.00 0.00 0.78 87 1012.5
20200329210604 50 45 2.0 2.0 0.00 0.00 0.78 88 1012.5
20200329205603 49 135 1.0 1.0 0.00 0.00 0.78 89 1012.9
20200329204103 48 203 3.0 3.0 0.00 0.00 0.78 90 1012.9
20200329202604 48 270 2.0 2.0 0.00 0.00 0.78 92 1012.9
20200329201603 48 270 1.0 1.0 0.00 0.00 0.78 91 1012.9
20200329200104 49 180 1.0 1.0 0.00 0.00 0.78 93 1012.9
20200329195103 48 180 2.0 2.0 0.03 0.00 0.78 94 1013.2
20200329193604 48 180 2.0 2.0 0.07 0.00 0.78 95 1012.9
20200329192604 46 158 4.0 4.0 0.07 0.00 0.78 97 1013.2
20200329191103 45 180 1.0 1.0 0.07 0.00 0.78 99 1013.2
20200329185604 46 113 0.0 0.0 0.04 0.00 0.75 96 1012.9
20200329184104 46 135 2.0 2.0 0.00 0.00 0.71 94 1012.9
20200329182603 49 0 6.0 6.0 0.01 0.00 0.71 92 1012.9
20200329181104 48 158 2.0 2.0 0.01 0.00 0.71 93 1012.9
20200329180103 48 23 1.0 1.0 0.01 0.00 0.71 93 1012.9
20200329174604 49 180 4.0 4.0 0.01 0.00 0.71 96 1012.9
20200329173105 47 158 2.0 2.0 0.00 0.00 0.70 97 1012.9
20200329172103 47 158 2.0 2.0 0.00 0.00 0.70 99 1012.9
20200329170604 46 293 1.0 1.0 0.00 0.00 0.70 99 1012.5
20200329165104 46 203 0.0 0.0 0.00 0.00 0.70 99 1012.9
20200329164104 45 203 2.0 2.0 0.00 0.00 0.70 99 1012.9
20200329162603 45 158 2.0 2.0 0.01 0.00 0.70 99 1012.9
20200329161104 45 158 0.0 0.0 0.01 0.00 0.70 99 1012.5
20200329160104 45 225 0.0 0.0 0.01 0.00 0.70 99 1012.5
20200329154604 44 135 0.0 0.0 0.01 0.00 0.70 99 1012.5
20200329153604 44 270 0.0 0.0 0.01 0.00 0.70 99 1012.5
20200329152105 44 113 1.0 1.0 0.00 0.00 0.69 99 1012.5
20200329150604 44 203 0.0 0.0 0.00 0.00 0.69 99 1012.2
20200329145104 44 113 0.0 0.0 0.00 0.00 0.69 99 1012.2
20200329144103 44 203 0.0 0.0 0.01 0.00 0.69 99 1012.2
20200329142604 44 180 2.0 2.0 0.03 0.00 0.69 99 1012.2
20200329141104 44 0 0.0 0.0 0.03 0.00 0.69 99 1012.2
20200329140103 44 23 0.0 0.0 0.04 0.00 0.69 99 1011.9
20200329134604 44 0 0.0 0.0 0.04 0.00 0.67 99 1011.9
20200329133104 44 315 2.0 2.0 0.05 0.00 0.66 99 1011.9
20200329132103 44 180 2.0 2.0 0.06 0.00 0.66 99 1011.5
20200329130604 44 203 6.0 6.0 0.07 0.00 0.64 99 1011.5
20200329125603 44 203 1.0 1.0 0.08 0.00 0.63 99 1011.5
20200329124103 44 90 1.0 1.0 0.07 0.00 0.62 99 1011.5
20200329122604 44 90 0.0 0.0 0.07 0.00 0.59 99 1011.5
20200329120105 44 225 0.0 0.0 0.04 0.00 0.55 99 1011.5
20200329114604 44 270 2.0 2.0 0.07 0.00 0.54 99 1011.5
20200329113604 44 180 1.0 1.0 0.08 0.00 0.53 99 1011.5
20200329112103 45 270 1.0 1.0 0.08 0.00 0.52 99 1011.5
20200329110604 45 293 1.0 1.0 0.16 0.00 0.51 99 1011.9
20200329105603 45 180 4.0 4.0 0.18 0.00 0.50 99 1011.5
20200329104103 45 0 3.0 3.0 0.16 0.00 0.45 99 1011.9
20200329102604 45 135 3.0 3.0 0.19 0.00 0.43 99 1011.9
20200329101604 45 315 2.0 2.0 0.16 0.00 0.38 99 1011.9
20200329100103 45 203 3.0 3.0 0.12 0.00 0.32 99 1011.5
20200329094604 45 270 1.0 1.0 0.14 0.00 0.28 99 1011.5
20200329093604 45 45 0.0 0.0 0.15 0.00 0.26 99 1011.5
20200329092103 45 270 2.0 2.0 0.13 0.00 0.23 99 1011.5
20200329090604 46 180 0.0 0.0 0.11 0.00 0.19 99 1011.5
20200329085603 46 180 0.0 0.0 0.10 0.00 0.16 99 1011.5
20200329084103 46 158 0.0 0.0 0.07 0.00 0.12 99 1011.5
20200329082606 46 90 0.0 0.0 0.06 0.00 0.09 99 1011.5
20200329081603 46 158 0.0 0.0 0.08 0.00 0.09 98 1011.5
20200329080103 46 270 0.0 0.0 0.07 0.00 0.07 98 1011.5
20200329074604 46 180 0.0 0.0 0.06 0.00 0.05 97 1011.9
20200329073104 46 203 0.0 0.0 0.04 0.00 0.03 95 1011.9
20200329071604 47 248 2.0 2.0 0.02 0.00 0.01 94 1011.9
20200329070104 47 113 0.0 0.0 0.01 0.00 0.00 93 1011.9
20200329064604 47 225 0.0 0.0 0.00 0.00 0.10 94 1011.9
20200329063104 46 203 1.0 1.0 0.00 0.00 0.10 94 1011.9
20200329062103 46 180 2.0 2.0 0.00 0.00 0.10 96 1012.2
20200329060619 46 45 0.0 0.0 0.02 0.00 0.10 97 1012.2
20200329055104 46 113 0.0 0.0 0.02 0.00 0.10 97 1012.2
20200329054103 46 180 0.0 0.0 0.02 0.00 0.10 97 1012.2
20200329052605 47 90 2.0 2.0 0.03 0.00 0.10 95 1012.5
20200329051105 47 180 1.0 1.0 0.01 0.00 0.08 93 1012.5
20200329045604 47 225 4.0 4.0 0.01 0.00 0.08 93 1012.5
20200329044603 47 180 1.0 1.0 0.01 0.00 0.08 93 1012.5
20200329043104 48 113 0.0 0.0 0.01 0.00 0.08 93 1012.5
20200329041606 48 180 0.0 0.0 0.00 0.00 0.07 93 1012.5
20200329040104 48 180 4.0 4.0 0.00 0.00 0.07 93 1012.9
20200329034606 48 180 0.0 0.0 0.00 0.00 0.07 94 1012.9
20200329033604 48 68 1.0 1.0 0.01 0.00 0.07 94 1012.9
20200329032104 48 90 2.0 2.0 0.01 0.00 0.07 94 1012.9
20200329030605 48 68 3.0 3.0 0.01 0.00 0.07 94 1012.9
20200329025104 48 225 1.0 1.0 0.01 0.00 0.07 92 1012.9
20200329023605 49 90 0.0 0.0 0.00 0.00 0.06 92 1012.9
20200329022603 49 203 1.0 1.0 0.00 0.00 0.06 91 1012.9
20200329021105 50 45 1.0 1.0 0.00 0.00 0.06 88 1012.9
20200329015605 51 180 0.0 0.0 0.00 0.00 0.06 84 1012.9
20200329014604 51 225 0.0 0.0 0.00 0.00 0.06 84 1013.2
20200329013105 51 68 2.0 2.0 0.00 0.00 0.06 82 1013.2
20200329012103 52 270 1.0 1.0 0.00 0.00 0.06 81 1013.2
20200329010605 52 113 0.0 0.0 0.00 0.00 0.06 81 1013.2
20200329005604 52 180 2.0 2.0 0.00 0.00 0.06 80 1013.2
20200329004105 52 180 2.0 2.0 0.00 0.00 0.06 79 1013.2